createdAt,value
2022-08-05T00:02:51.570Z,91973.47
2022-08-05T00:06:04.679Z,91964.66
2022-08-05T00:09:19.634Z,91963.63
2022-08-05T00:12:23.285Z,91960.22
2022-08-05T00:15:55.953Z,91959.38
2022-08-05T00:18:50.009Z,91952.91
2022-08-05T00:21:54.068Z,91938.75
2022-08-05T00:24:57.191Z,91942.44
2022-08-05T00:28:00.532Z,91942.56
2022-08-05T00:31:07.591Z,91946.44
2022-08-05T00:34:55.263Z,91934.28
2022-08-05T00:37:51.343Z,91935.59
2022-08-05T00:40:59.668Z,91940.19
2022-08-05T00:44:03.556Z,91935.66
2022-08-05T00:47:06.347Z,91940.50
2022-08-05T00:50:13.762Z,91940.66
2022-08-05T00:54:00.921Z,91955.50
2022-08-05T00:56:51.319Z,91953.19
2022-08-05T00:59:55.175Z,91939.59
2022-08-05T01:02:59.942Z,91946.78
2022-08-05T01:06:05.324Z,91952.03
2022-08-05T01:09:08.646Z,91951.31
2022-08-05T01:12:18.652Z,91949.59
2022-08-05T01:15:36.424Z,91940.97
2022-08-05T01:18:48.126Z,91949.13
2022-08-05T01:22:34.185Z,91937.59
2022-08-05T01:25:56.245Z,91945.69
2022-08-05T01:29:25.752Z,91944.97
2022-08-05T01:32:32.430Z,91945.50
2022-08-05T01:35:51.680Z,91942.91
2022-08-05T01:39:01.216Z,91946.81
2022-08-05T01:42:06.777Z,91950.19
2022-08-05T01:45:16.479Z,91950.41
2022-08-05T01:48:20.960Z,91942.91
2022-08-05T01:51:25.895Z,91943.44
2022-08-05T01:54:46.520Z,91943.00
2022-08-05T01:58:14.965Z,91946.72
2022-08-05T02:01:23.258Z,91951.75
2022-08-05T02:04:37.513Z,91944.50
2022-08-05T02:07:47.403Z,91940.69
2022-08-05T02:11:12.049Z,91941.59
2022-08-05T02:14:25.949Z,91935.16
2022-08-05T02:18:31.908Z,91936.78
2022-08-05T02:21:15.946Z,91936.25
2022-08-05T02:24:23.086Z,91936.81
2022-08-05T02:27:29.715Z,91934.59
2022-08-05T02:30:57.351Z,91925.75
2022-08-05T02:34:11.569Z,91911.47
2022-08-05T02:40:21.505Z,91918.00
2022-08-05T02:43:26.078Z,91918.72
2022-08-05T02:46:29.690Z,91905.94
2022-08-05T02:49:37.731Z,91909.31
2022-08-05T02:52:47.028Z,91900.78
2022-08-05T02:56:00.389Z,91898.84
2022-08-05T02:59:07.173Z,91889.53
2022-08-05T03:02:11.991Z,91876.59
2022-08-05T03:05:17.721Z,91877.69
2022-08-05T03:08:26.966Z,91881.97
2022-08-05T03:11:54.362Z,91881.75
2022-08-05T03:14:56.993Z,91892.22
2022-08-05T03:18:00.629Z,91880.19
2022-08-05T03:21:03.984Z,91877.34
2022-08-05T03:24:11.290Z,91869.28
2022-08-05T03:27:17.000Z,91880.50
2022-08-05T03:30:20.752Z,91866.16
2022-08-05T03:33:24.609Z,91867.53
2022-08-05T03:36:46.230Z,91861.81
2022-08-05T03:39:59.273Z,91862.72
2022-08-05T03:43:58.793Z,91863.75
2022-08-05T03:46:29.695Z,91853.50
2022-08-05T03:49:51.880Z,91854.78
2022-08-05T03:55:00.446Z,91846.03
2022-08-05T03:56:41.245Z,91849.03
2022-08-05T04:00:12.269Z,91851.34
2022-08-05T04:03:28.611Z,91845.47
2022-08-05T04:06:35.679Z,91850.13
2022-08-05T04:09:39.321Z,91846.78
2022-08-05T04:12:58.787Z,91849.59
2022-08-05T04:16:04.447Z,91851.47
2022-08-05T04:19:12.010Z,91854.94
2022-08-05T04:22:20.449Z,91847.38
2022-08-05T04:25:56.577Z,91840.53
2022-08-05T04:28:52.137Z,91839.22
2022-08-05T04:31:56.892Z,91831.88
2022-08-05T04:34:59.920Z,91835.88
2022-08-05T04:38:06.628Z,91833.03
2022-08-05T04:41:10.240Z,91836.63
2022-08-05T04:44:13.591Z,91829.03
2022-08-05T04:47:18.709Z,91835.09
2022-08-05T04:50:34.422Z,91830.97
2022-08-05T04:53:46.564Z,91818.69
2022-08-05T04:56:49.678Z,91825.34
2022-08-05T04:59:52.777Z,91817.25
2022-08-05T05:02:59.137Z,91820.34
2022-08-05T05:06:39.234Z,91810.00
2022-08-05T05:09:30.126Z,91817.88
2022-08-05T05:12:36.769Z,91816.00
2022-08-05T05:15:56.797Z,91807.91
2022-08-05T05:19:18.860Z,91816.63
2022-08-05T05:22:26.446Z,91817.03
2022-08-05T05:25:32.647Z,91813.53
2022-08-05T05:28:44.819Z,91814.75
2022-08-05T05:31:48.183Z,91817.88
2022-08-05T05:34:52.450Z,91812.69
2022-08-05T05:38:00.122Z,91812.88
2022-08-05T05:41:04.356Z,91811.22
2022-08-05T05:44:35.662Z,91809.56
2022-08-05T05:48:08.092Z,91809.78
2022-08-05T05:50:59.222Z,91806.88
2022-08-05T05:54:18.487Z,91813.94
2022-08-05T05:57:22.720Z,91802.50
2022-08-05T06:00:27.762Z,91805.19
2022-08-05T06:03:54.016Z,91808.91
2022-08-05T06:06:57.727Z,91800.63
2022-08-05T06:10:10.255Z,91795.66
2022-08-05T06:13:14.042Z,91794.41
2022-08-05T06:16:31.635Z,91794.41
2022-08-05T06:19:35.932Z,91790.25
2022-08-05T06:22:40.410Z,91792.13
2022-08-05T06:26:12.565Z,91784.63
2022-08-05T06:29:42.821Z,91787.94
2022-08-05T06:32:29.921Z,91782.97
2022-08-05T06:36:07.802Z,91776.56
2022-08-05T06:38:56.198Z,91773.63
2022-08-05T06:42:04.047Z,91768.22
2022-08-05T06:45:09.358Z,91767.94
2022-08-05T06:48:52.671Z,91766.28
2022-08-05T06:51:35.712Z,91758.66
2022-08-05T06:54:43.890Z,91763.47
2022-08-05T06:57:57.981Z,91758.47
2022-08-05T07:01:07.416Z,91763.28
2022-08-05T07:04:10.781Z,91759.69
2022-08-05T07:07:24.153Z,91750.78
2022-08-05T07:10:52.367Z,91748.50
2022-08-05T07:14:20.045Z,91753.50
2022-08-05T07:17:59.397Z,91749.78
2022-08-05T07:20:46.894Z,91748.28
2022-08-05T07:23:52.344Z,91750.59
2022-08-05T07:26:55.460Z,91758.25
2022-08-05T07:30:27.778Z,91753.28
2022-08-05T07:33:37.045Z,91754.13
2022-08-05T07:36:40.580Z,91756.81
2022-08-05T07:40:26.679Z,91759.28
2022-08-05T07:43:14.536Z,91752.59
2022-08-05T07:46:25.189Z,91758.41
2022-08-05T07:49:28.831Z,91757.13
2022-08-05T07:52:31.975Z,91758.72
2022-08-05T07:55:44.172Z,91761.59
2022-08-05T07:58:59.183Z,91756.38
2022-08-05T08:02:03.308Z,91762.16
2022-08-05T08:05:06.753Z,91767.56
2022-08-05T08:08:12.905Z,91765.25
2022-08-05T08:11:18.493Z,91759.19
2022-08-05T08:14:30.814Z,91758.34
2022-08-05T08:17:34.432Z,91757.72
2022-08-05T08:20:45.344Z,91759.16
2022-08-05T08:24:04.924Z,91759.41
2022-08-05T08:27:09.238Z,91754.22
2022-08-05T08:30:29.727Z,91762.13
2022-08-05T08:33:38.016Z,91759.84
2022-08-05T08:36:49.140Z,91757.72
2022-08-05T08:39:58.154Z,91759.75
2022-08-05T08:44:56.523Z,91762.84
2022-08-05T08:46:28.183Z,91746.63
2022-08-05T08:50:06.011Z,91755.63
2022-08-05T08:53:12.221Z,91759.34
2022-08-05T08:56:16.024Z,91757.03
2022-08-05T08:59:21.641Z,91761.06
2022-08-05T09:02:31.086Z,91764.56
2022-08-05T09:05:38.782Z,91767.47
2022-08-05T09:08:59.703Z,91759.06
2022-08-05T09:12:20.068Z,91764.75
2022-08-05T09:15:24.523Z,91765.50
2022-08-05T09:18:28.947Z,91763.00
2022-08-05T09:22:22.972Z,91764.63
2022-08-05T09:25:14.049Z,91767.31
2022-08-05T09:28:31.452Z,91773.38
2022-08-05T09:32:39.942Z,91774.22
2022-08-05T09:35:00.465Z,91772.94
2022-08-05T09:38:16.694Z,91774.47
2022-08-05T09:41:21.573Z,91778.75
2022-08-05T09:44:45.194Z,91788.84
2022-08-05T09:47:56.024Z,91790.38
2022-08-05T09:51:02.541Z,91782.41
2022-08-05T09:54:10.004Z,91782.94
2022-08-05T09:57:33.758Z,91796.47
2022-08-05T10:00:38.938Z,91802.56
2022-08-05T10:04:00.578Z,91788.19
2022-08-05T10:07:19.458Z,91797.75
2022-08-05T10:10:28.153Z,91797.88
2022-08-05T10:13:45.676Z,91790.97
2022-08-05T10:16:52.888Z,91791.22
2022-08-05T10:20:04.135Z,91802.81
2022-08-05T10:23:55.802Z,91799.53
2022-08-05T10:26:52.261Z,91790.13
2022-08-05T10:30:40.987Z,91803.38
2022-08-05T10:33:18.987Z,91799.63
2022-08-05T10:36:23.533Z,91799.97
2022-08-05T10:39:59.035Z,91797.47
2022-08-05T10:43:39.338Z,91799.66
2022-08-05T10:46:50.978Z,91802.06
2022-08-05T10:50:20.695Z,91802.97
2022-08-05T10:53:45.266Z,91797.19
2022-08-05T10:56:53.090Z,91805.91
2022-08-05T11:00:20.509Z,91811.28
2022-08-05T11:03:26.987Z,91800.13
2022-08-05T11:06:31.106Z,91808.81
2022-08-05T11:09:47.692Z,91811.34
2022-08-05T11:12:55.218Z,91811.03
2022-08-05T11:16:33.747Z,91815.72
2022-08-05T11:20:10.251Z,91818.09
2022-08-05T11:24:04.032Z,91816.00
2022-08-05T11:27:50.860Z,91817.91
2022-08-05T11:30:58.593Z,91821.06
2022-08-05T11:34:05.074Z,91815.56
2022-08-05T11:38:30.195Z,91819.69
2022-08-05T11:41:12.675Z,91816.06
2022-08-05T11:44:53.198Z,91819.69
2022-08-05T11:47:49.896Z,91820.81
2022-08-05T11:50:54.111Z,91817.66
2022-08-05T11:53:58.066Z,91825.69
2022-08-05T11:57:08.482Z,91826.78
2022-08-05T12:00:30.744Z,91827.25
2022-08-05T12:03:55.724Z,91835.09
2022-08-05T12:07:01.769Z,91828.16
2022-08-05T12:10:09.467Z,91838.53
2022-08-05T12:13:28.068Z,91834.78
2022-08-05T12:16:45.144Z,91849.69
2022-08-05T12:20:26.026Z,91846.69
2022-08-05T12:23:18.638Z,91850.31
2022-08-05T12:26:23.845Z,91857.38
2022-08-05T12:29:38.024Z,91859.41
2022-08-05T12:32:50.350Z,91867.72
2022-08-05T12:35:53.709Z,91871.97
2022-08-05T12:38:58.580Z,91882.97
2022-08-05T12:42:01.663Z,91893.94
2022-08-05T12:45:09.387Z,91892.84
2022-08-05T12:48:26.906Z,91891.09
2022-08-05T12:52:12.570Z,91897.97
2022-08-05T12:54:55.515Z,91900.19
2022-08-05T12:58:50.149Z,91903.28
2022-08-05T13:02:01.314Z,91908.31
2022-08-05T13:04:54.457Z,91911.88
2022-08-05T13:08:01.414Z,91926.94
2022-08-05T13:11:04.792Z,91927.53
2022-08-05T13:14:25.005Z,91921.81
2022-08-05T13:17:41.998Z,91926.47
2022-08-05T13:20:45.515Z,91924.25
2022-08-05T13:23:50.708Z,91917.91
2022-08-05T13:26:55.367Z,91907.34
2022-08-05T13:30:31.674Z,91905.25
2022-08-05T13:34:22.600Z,91912.09
2022-08-05T13:36:45.665Z,91912.03
2022-08-05T13:40:16.064Z,91911.19
2022-08-05T13:43:14.293Z,91917.56
2022-08-05T13:46:43.644Z,91916.09
2022-08-05T13:49:49.948Z,91924.50
2022-08-05T13:52:53.839Z,91920.06
2022-08-05T13:56:01.940Z,91918.81
2022-08-05T13:59:06.317Z,91919.59
2022-08-05T14:02:26.463Z,91931.66
2022-08-05T14:06:04.908Z,91918.47
2022-08-05T14:08:53.223Z,91918.59
2022-08-05T14:12:04.178Z,91923.44
2022-08-05T14:16:05.754Z,91921.53
2022-08-05T14:18:42.949Z,91921.06
2022-08-05T14:22:08.498Z,91923.00
2022-08-05T14:25:21.759Z,91928.59
2022-08-05T14:28:31.548Z,91932.94
2022-08-05T14:32:02.702Z,91940.56
2022-08-05T14:34:58.649Z,91936.13
2022-08-05T14:38:01.774Z,91944.66
2022-08-05T14:41:07.634Z,91931.09
2022-08-05T14:44:20.026Z,91946.22
2022-08-05T14:48:03.447Z,91938.13
2022-08-05T14:50:47.166Z,91941.44
2022-08-05T14:54:26.138Z,91948.91
2022-08-05T14:57:15.407Z,91944.13
2022-08-05T15:00:20.107Z,91952.50
2022-08-05T15:03:23.270Z,91945.41
2022-08-05T15:06:27.923Z,91951.84
2022-08-05T15:09:51.550Z,91947.66
2022-08-05T15:13:03.322Z,91952.88
2022-08-05T15:16:07.667Z,91954.63
2022-08-05T15:19:23.709Z,91953.97
2022-08-05T15:22:28.137Z,91954.47
2022-08-05T15:25:50.934Z,91957.13
2022-08-05T15:28:54.432Z,91961.25
2022-08-05T15:31:57.555Z,91965.28
2022-08-05T15:35:10.866Z,91965.22
2022-08-05T15:38:47.856Z,91963.03
2022-08-05T15:41:57.743Z,91975.53
2022-08-05T15:45:01.837Z,91971.84
2022-08-05T15:48:05.424Z,91979.88
2022-08-05T15:51:09.926Z,91977.16
2022-08-05T15:54:15.178Z,91979.75
2022-08-05T15:57:18.771Z,91988.19
2022-08-05T16:00:26.038Z,91986.28
2022-08-05T16:03:35.810Z,91981.97
2022-08-05T16:06:44.256Z,91972.84
2022-08-05T16:09:47.417Z,91975.28
2022-08-05T16:12:51.139Z,91971.69
2022-08-05T16:15:55.652Z,91969.72
2022-08-05T16:18:58.917Z,91969.50
2022-08-05T16:22:03.795Z,91981.38
2022-08-05T16:25:10.032Z,91981.63
2022-08-05T16:28:14.189Z,91982.66
2022-08-05T16:31:18.760Z,91989.06
2022-08-05T16:34:22.700Z,91991.25
2022-08-05T16:38:03.039Z,91993.59
2022-08-05T16:40:55.346Z,91998.47
2022-08-05T16:43:59.132Z,91987.09
2022-08-05T16:47:02.834Z,91988.69
2022-08-05T16:50:09.176Z,91980.31
2022-08-05T16:53:22.863Z,91991.22
2022-08-05T16:56:36.388Z,91995.75
2022-08-05T17:00:04.358Z,91993.81
2022-08-05T17:03:03.900Z,91994.97
2022-08-05T17:06:18.615Z,91994.41
2022-08-05T17:09:23.159Z,91992.53
2022-08-05T17:12:50.565Z,91990.50
2022-08-05T17:15:55.455Z,91987.81
2022-08-05T17:19:10.802Z,91985.00
2022-08-05T17:22:24.544Z,91982.13
2022-08-05T17:25:39.199Z,91983.69
2022-08-05T17:28:43.000Z,91988.78
2022-08-05T17:31:58.930Z,91984.97
2022-08-05T17:35:02.652Z,91977.75
2022-08-05T17:38:09.529Z,91980.41
2022-08-05T17:42:28.385Z,91985.91
2022-08-05T17:44:36.695Z,91993.94
2022-08-05T17:47:40.091Z,91990.09
2022-08-05T17:50:43.068Z,91992.00
2022-08-05T17:53:54.476Z,91991.47
2022-08-05T17:56:58.520Z,91991.56
2022-08-05T18:00:03.761Z,91991.69
2022-08-05T18:03:08.864Z,91999.78
2022-08-05T18:06:14.987Z,92006.47
2022-08-05T18:09:18.680Z,91991.97
2022-08-05T18:12:24.095Z,92002.34
2022-08-05T18:15:28.215Z,91994.22
2022-08-05T18:18:40.768Z,92001.41
2022-08-05T18:22:07.530Z,91990.66
2022-08-05T18:25:07.475Z,91999.13
2022-08-05T18:28:12.463Z,92001.22
2022-08-05T18:31:24.304Z,92003.88
2022-08-05T18:34:35.076Z,91999.94
2022-08-05T18:37:44.542Z,92000.88
2022-08-05T18:41:53.847Z,92008.56
2022-08-05T18:44:11.417Z,92005.94
2022-08-05T18:47:15.815Z,92009.94
2022-08-05T18:50:45.236Z,92013.31
2022-08-05T18:53:50.353Z,92013.75
2022-08-05T18:56:53.661Z,92013.38
2022-08-05T19:00:03.464Z,92010.22
2022-08-05T19:03:10.645Z,92015.03
2022-08-05T19:06:21.649Z,92015.13
2022-08-05T19:09:25.563Z,92013.94
2022-08-05T19:12:32.781Z,92008.09
2022-08-05T19:15:57.485Z,92010.72
2022-08-05T19:18:58.881Z,92013.75
2022-08-05T19:22:01.885Z,92010.66
2022-08-05T19:25:05.453Z,92014.41
2022-08-05T19:28:08.453Z,92018.25
2022-08-05T19:31:13.675Z,92015.34
2022-08-05T19:34:21.269Z,92011.88
2022-08-05T19:37:47.291Z,92013.66
2022-08-05T19:40:49.029Z,92024.19
2022-08-05T19:44:04.196Z,92026.19
2022-08-05T19:47:09.588Z,92021.59
2022-08-05T19:50:13.073Z,92025.63
2022-08-05T19:53:16.107Z,92027.72
2022-08-05T19:56:39.233Z,92028.38
2022-08-05T19:59:55.935Z,92016.50
2022-08-05T20:03:14.335Z,92009.41
2022-08-05T20:06:28.762Z,92016.06
2022-08-05T20:09:54.395Z,92021.41
2022-08-05T20:12:55.834Z,92020.25
2022-08-05T20:15:59.562Z,92018.91
2022-08-05T20:19:02.977Z,92016.31
2022-08-05T20:22:06.347Z,92008.41
2022-08-05T20:25:12.783Z,92007.75
2022-08-05T20:28:15.777Z,92008.47
2022-08-05T20:31:21.759Z,92005.94
2022-08-05T20:34:31.612Z,92009.31
2022-08-05T20:38:05.540Z,92017.88
2022-08-05T20:40:58.284Z,92018.59
2022-08-05T20:44:06.155Z,92015.44
2022-08-05T20:47:21.365Z,92014.78
2022-08-05T20:50:37.734Z,92017.50
2022-08-05T20:53:56.273Z,92024.25
2022-08-05T20:57:00.126Z,92029.03
2022-08-05T21:00:20.552Z,92027.50
2022-08-05T21:03:34.180Z,92021.81
2022-08-05T21:06:45.122Z,92024.00
2022-08-05T21:09:53.291Z,92020.91
2022-08-05T21:12:57.944Z,92021.63
2022-08-05T21:16:13.246Z,92017.69
2022-08-05T21:19:16.864Z,92016.44
2022-08-05T21:22:23.861Z,92011.22
2022-08-05T21:25:33.800Z,92003.31
2022-08-05T21:28:37.173Z,92007.84
2022-08-05T21:31:41.945Z,92005.84
2022-08-05T21:34:45.093Z,92005.31
2022-08-05T21:38:08.306Z,91996.66
2022-08-05T21:41:12.076Z,92007.13
2022-08-05T21:44:15.509Z,91997.13
2022-08-05T21:47:55.272Z,92004.31
2022-08-05T21:50:44.962Z,91999.19
2022-08-05T21:54:03.564Z,92001.69
2022-08-05T21:57:30.948Z,91992.09
2022-08-05T22:00:30.750Z,91996.97
2022-08-05T22:03:51.620Z,91996.44
2022-08-05T22:06:57.216Z,91999.75
2022-08-05T22:10:00.549Z,91999.63
2022-08-05T22:14:05.538Z,92013.53
2022-08-05T22:16:41.952Z,92011.16
2022-08-05T22:20:00.866Z,92017.56
2022-08-05T22:24:01.882Z,92017.13
2022-08-05T22:27:14.056Z,92025.25
2022-08-05T22:30:20.279Z,92038.56
2022-08-05T22:33:58.439Z,92046.19
2022-08-05T22:36:46.814Z,92053.03
2022-08-05T22:39:51.470Z,92058.84
2022-08-05T22:42:58.515Z,92063.66
2022-08-05T22:46:04.639Z,92057.19
2022-08-05T22:50:17.368Z,92055.81
2022-08-05T22:52:37.117Z,92045.53
2022-08-05T22:55:57.338Z,92050.81
2022-08-05T22:59:42.617Z,92067.94
2022-08-05T23:02:29.449Z,92061.03
2022-08-05T23:05:36.027Z,92058.53
2022-08-05T23:08:39.263Z,92056.78
2022-08-05T23:11:46.582Z,92067.59
2022-08-05T23:14:53.217Z,92071.78
2022-08-05T23:18:01.154Z,92072.38
2022-08-05T23:21:06.437Z,92068.38
2022-08-05T23:24:13.419Z,92059.03
2022-08-05T23:27:16.670Z,92063.38
2022-08-05T23:30:27.157Z,92062.09
2022-08-05T23:34:02.948Z,92058.06
2022-08-05T23:36:55.221Z,92053.38
2022-08-05T23:39:58.004Z,92049.97
2022-08-05T23:43:03.139Z,92049.44
2022-08-05T23:46:26.197Z,92058.31
2022-08-05T23:49:35.567Z,92056.19
2022-08-05T23:52:49.970Z,92064.53
2022-08-05T23:55:53.593Z,92065.41
2022-08-05T23:58:58.702Z,92063.78
